createdAt,value
2019-05-21T00:00:15.278Z,14.30
2019-05-21T00:05:20.508Z,11.63
2019-05-21T00:10:25.472Z,15.50
2019-05-21T00:15:30.260Z,15.70
2019-05-21T00:20:35.137Z,15.63
2019-05-21T00:25:39.885Z,9.90
2019-05-21T00:31:21.041Z,12.50
2019-05-21T00:37:03.676Z,13.43
2019-05-21T00:42:08.569Z,13.27
2019-05-21T00:47:13.988Z,10.40
2019-05-21T00:52:18.825Z,14.70
2019-05-21T00:57:23.659Z,8.53
2019-05-21T01:02:28.492Z,21.50
2019-05-21T01:07:33.259Z,12.43
2019-05-21T01:12:38.098Z,11.83
2019-05-21T01:17:43.449Z,12.47
2019-05-21T01:22:48.902Z,14.83
2019-05-21T01:27:53.773Z,14.00
2019-05-21T01:32:59.116Z,25.40
2019-05-21T01:38:04.340Z,19.33
2019-05-21T01:43:09.566Z,13.97
2019-05-21T01:48:14.411Z,14.73
2019-05-21T01:53:19.258Z,14.03
2019-05-21T01:58:24.023Z,17.67
2019-05-21T02:03:28.933Z,16.80
2019-05-21T02:08:33.785Z,11.97
2019-05-21T02:13:38.622Z,17.63
2019-05-21T02:18:43.475Z,12.93
2019-05-21T02:23:48.314Z,16.33
2019-05-21T02:28:53.085Z,16.33
2019-05-21T02:33:57.798Z,17.93
2019-05-21T02:39:02.636Z,16.80
2019-05-21T02:44:07.470Z,17.17
2019-05-21T02:49:12.302Z,18.80
2019-05-21T02:54:17.151Z,21.00
2019-05-21T02:59:22.047Z,23.33
2019-05-21T03:04:27.033Z,21.47
2019-05-21T03:09:31.792Z,19.83
2019-05-21T03:14:36.628Z,19.53
2019-05-21T03:19:41.469Z,16.77
2019-05-21T03:24:46.306Z,22.53
2019-05-21T03:29:51.142Z,19.53
2019-05-21T03:34:55.984Z,17.20
2019-05-21T03:40:01.777Z,15.47
2019-05-21T03:45:08.180Z,20.03
2019-05-21T03:50:13.371Z,21.10
2019-05-21T03:55:18.201Z,20.87
2019-05-21T04:00:23.035Z,20.53
2019-05-21T04:05:28.322Z,27.13
2019-05-21T04:10:33.169Z,23.93
2019-05-21T04:15:53.432Z,24.53
2019-05-21T04:20:58.274Z,16.30
2019-05-21T04:26:03.109Z,22.23
2019-05-21T04:31:07.945Z,32.73
2019-05-21T04:36:12.868Z,46.27
2019-05-21T04:41:17.701Z,49.20
2019-05-21T04:46:22.550Z,56.07
2019-05-21T04:51:27.380Z,49.33
2019-05-21T04:56:32.213Z,42.97
2019-05-21T05:01:36.986Z,41.03
2019-05-21T05:06:41.747Z,40.80
2019-05-21T05:11:46.610Z,39.27
2019-05-21T05:16:51.532Z,48.43
2019-05-21T05:21:56.329Z,46.10
2019-05-21T05:27:01.205Z,49.80
2019-05-21T05:32:06.036Z,50.37
2019-05-21T05:37:10.874Z,57.77
2019-05-21T05:42:15.716Z,56.23
2019-05-21T05:47:20.554Z,53.27
2019-05-21T05:52:25.390Z,55.60
2019-05-21T05:57:30.229Z,57.40
2019-05-21T06:02:35.067Z,47.73
2019-05-21T06:07:39.907Z,55.10
2019-05-21T06:12:44.748Z,51.80
2019-05-21T06:17:49.647Z,48.07
2019-05-21T06:22:54.497Z,50.47
2019-05-21T06:27:59.326Z,46.57
2019-05-21T06:33:04.181Z,43.30
2019-05-21T06:38:17.785Z,44.27
2019-05-21T06:43:15.403Z,50.10
2019-05-21T06:48:20.233Z,51.13
2019-05-21T06:53:25.066Z,43.20
2019-05-21T06:58:29.832Z,47.87
2019-05-21T07:03:34.681Z,53.47
2019-05-21T07:08:39.517Z,50.27
2019-05-21T07:13:44.365Z,50.63
2019-05-21T07:18:49.286Z,46.70
2019-05-21T07:23:54.121Z,48.43
2019-05-21T07:28:58.931Z,52.87
2019-05-21T07:34:03.742Z,42.97
2019-05-21T07:39:08.582Z,45.03
2019-05-21T07:44:13.424Z,48.60
2019-05-21T07:49:18.258Z,44.77
2019-05-21T07:54:23.035Z,40.47
2019-05-21T07:59:27.817Z,44.13
2019-05-21T08:04:32.639Z,37.80
2019-05-21T08:09:37.468Z,38.70
2019-05-21T08:14:42.229Z,35.10
2019-05-21T08:19:47.181Z,36.87
2019-05-21T08:24:52.021Z,28.53
2019-05-21T08:29:56.868Z,25.87
2019-05-21T08:35:01.706Z,27.67
2019-05-21T08:40:07.941Z,24.83
2019-05-21T08:45:13.451Z,26.03
2019-05-21T08:50:18.298Z,24.13
2019-05-21T08:55:23.139Z,23.60
2019-05-21T09:00:29.849Z,22.13
2019-05-21T09:05:34.693Z,27.67
2019-05-21T09:10:41.761Z,25.33
2019-05-21T09:15:46.608Z,20.17
2019-05-21T09:20:51.512Z,19.57
2019-05-21T09:25:56.294Z,12.63
2019-05-21T09:31:02.045Z,19.07
2019-05-21T09:36:07.832Z,20.70
2019-05-21T09:41:12.672Z,16.60
2019-05-21T09:46:17.515Z,18.37
2019-05-21T09:51:22.358Z,14.97
2019-05-21T09:56:39.217Z,18.57
2019-05-21T10:01:51.494Z,13.70
2019-05-21T10:06:56.386Z,20.07
2019-05-21T10:12:01.283Z,17.20
2019-05-21T10:17:06.232Z,22.27
2019-05-21T10:22:11.359Z,14.23
2019-05-21T10:27:16.295Z,14.77
2019-05-21T10:32:21.165Z,10.93
2019-05-21T10:37:26.104Z,16.10
2019-05-21T10:42:30.954Z,13.53
2019-05-21T10:47:35.802Z,14.37
2019-05-21T10:52:40.745Z,15.67
2019-05-21T10:57:45.556Z,18.60
2019-05-21T11:02:55.021Z,16.33
2019-05-21T11:08:22.266Z,11.13
2019-05-21T11:13:06.405Z,12.10
2019-05-21T11:18:12.032Z,15.20
2019-05-21T11:23:17.484Z,16.53
2019-05-21T11:28:22.361Z,10.43
2019-05-21T11:33:27.653Z,9.93
2019-05-21T11:38:40.156Z,9.50
2019-05-21T11:43:39.202Z,10.50
2019-05-21T11:48:44.107Z,14.70
2019-05-21T11:53:48.930Z,11.37
2019-05-21T11:58:53.777Z,7.90
2019-05-21T12:03:58.538Z,12.73
2019-05-21T12:09:05.237Z,7.60
2019-05-21T12:14:10.090Z,10.30
2019-05-21T12:19:14.850Z,15.47
2019-05-21T12:24:19.807Z,14.60
2019-05-21T12:29:24.640Z,6.67
2019-05-21T12:34:29.473Z,13.87
2019-05-21T12:39:34.440Z,21.07
2019-05-21T12:44:39.269Z,7.10
2019-05-21T12:49:44.025Z,12.37
2019-05-21T12:54:48.869Z,8.97
2019-05-21T12:59:53.692Z,8.47
2019-05-21T13:04:58.531Z,11.37
2019-05-21T13:10:05.671Z,8.03
2019-05-21T13:15:11.114Z,8.47
2019-05-21T13:20:18.124Z,12.37
2019-05-21T13:25:23.072Z,17.97
2019-05-21T13:30:27.905Z,9.00
2019-05-21T13:35:32.742Z,4.30
2019-05-21T13:40:37.753Z,6.03
2019-05-21T13:45:42.596Z,5.20
2019-05-21T13:50:47.432Z,7.37
2019-05-21T13:55:52.259Z,6.83
2019-05-21T14:00:57.099Z,9.47
2019-05-21T14:06:02.051Z,6.87
2019-05-21T14:11:06.973Z,4.80
2019-05-21T14:16:11.822Z,3.83
2019-05-21T14:21:16.649Z,7.50
2019-05-21T14:26:21.597Z,7.87
2019-05-21T14:31:26.457Z,10.30
2019-05-21T14:36:31.409Z,6.87
2019-05-21T14:41:36.245Z,5.83
2019-05-21T14:46:41.073Z,9.17
2019-05-21T14:51:45.918Z,4.30
2019-05-21T14:56:50.918Z,3.60
2019-05-21T15:01:55.848Z,5.43
2019-05-21T15:07:00.803Z,7.30
2019-05-21T15:12:05.894Z,5.00
2019-05-21T15:17:10.814Z,6.03
2019-05-21T15:22:15.845Z,6.40
2019-05-21T15:27:20.680Z,4.73
2019-05-21T15:32:26.610Z,6.20
2019-05-21T15:37:32.063Z,8.13
2019-05-21T15:42:36.904Z,8.87
2019-05-21T15:47:41.848Z,9.70
2019-05-21T15:52:46.683Z,8.43
2019-05-21T15:57:51.522Z,7.43
2019-05-21T16:02:56.368Z,16.77
2019-05-21T16:08:01.212Z,9.40
2019-05-21T16:13:06.021Z,16.13
2019-05-21T16:18:10.870Z,8.40
2019-05-21T16:23:15.707Z,10.33
2019-05-21T16:28:20.477Z,13.63
2019-05-21T16:33:25.351Z,12.73
2019-05-21T16:38:30.229Z,9.33
2019-05-21T16:43:35.085Z,13.00
2019-05-21T16:48:39.926Z,12.57
2019-05-21T16:53:44.757Z,18.40
2019-05-21T16:58:49.639Z,12.13
2019-05-21T17:04:00.042Z,8.63
2019-05-21T17:09:00.922Z,11.07
2019-05-21T17:14:05.796Z,6.27
2019-05-21T17:19:10.632Z,8.17
2019-05-21T17:24:15.472Z,12.67
2019-05-21T17:29:20.313Z,62.23
2019-05-21T17:34:25.166Z,88.37
2019-05-21T17:39:30.341Z,50.50
2019-05-21T17:44:35.177Z,78.10
2019-05-21T17:49:40.026Z,39.20
2019-05-21T17:54:56.203Z,36.20
2019-05-21T17:59:52.813Z,25.67
2019-05-21T18:04:58.663Z,69.00
2019-05-21T18:10:03.757Z,27.07
2019-05-21T18:15:10.759Z,50.47
2019-05-21T18:20:17.733Z,52.87
2019-05-21T18:25:29.833Z,43.30
2019-05-21T18:30:34.682Z,43.23
2019-05-21T18:35:39.458Z,48.07
2019-05-21T18:40:44.314Z,53.33
2019-05-21T18:45:49.149Z,45.53
2019-05-21T18:50:54.045Z,41.73
2019-05-21T18:55:59.008Z,27.17
2019-05-21T19:01:04.068Z,26.27
2019-05-21T19:06:08.902Z,24.30
2019-05-21T19:11:13.751Z,19.07
2019-05-21T19:16:18.539Z,16.97
2019-05-21T19:21:23.378Z,16.87
2019-05-21T19:26:28.416Z,15.67
2019-05-21T19:31:33.286Z,13.33
2019-05-21T19:36:38.302Z,18.97
2019-05-21T19:41:43.433Z,17.27
2019-05-21T19:46:48.309Z,17.83
2019-05-21T19:51:54.678Z,48.33
2019-05-21T19:56:59.574Z,25.10
2019-05-21T20:02:06.178Z,12.40
2019-05-21T20:07:14.615Z,9.77
2019-05-21T20:12:19.476Z,12.43
2019-05-21T20:17:26.266Z,10.30
2019-05-21T20:22:31.981Z,13.17
2019-05-21T20:27:37.409Z,11.27
2019-05-21T20:32:43.258Z,13.67
2019-05-21T20:37:50.144Z,13.27
2019-05-21T20:42:55.407Z,10.47
2019-05-21T20:48:00.239Z,12.50
2019-05-21T20:53:06.747Z,14.50
2019-05-21T20:58:12.204Z,12.67
2019-05-21T21:03:17.622Z,13.57
2019-05-21T21:08:27.543Z,13.57
2019-05-21T21:13:30.049Z,16.37
2019-05-21T21:18:35.043Z,14.23
2019-05-21T21:23:41.049Z,13.97
2019-05-21T21:28:46.409Z,17.30
2019-05-21T21:33:51.269Z,13.93
2019-05-21T21:38:56.300Z,13.80
2019-05-21T21:44:01.670Z,16.17
2019-05-21T21:49:08.364Z,15.33
2019-05-21T21:54:13.406Z,13.67
2019-05-21T21:59:18.394Z,16.07
2019-05-21T22:04:27.086Z,11.37
2019-05-21T22:09:31.960Z,14.07
2019-05-21T22:14:50.446Z,16.57
2019-05-21T22:19:43.969Z,15.73
2019-05-21T22:24:49.788Z,15.07
2019-05-21T22:29:54.629Z,12.67
2019-05-21T22:34:59.414Z,15.80
2019-05-21T22:40:06.725Z,14.83
2019-05-21T22:45:12.037Z,16.47
2019-05-21T22:50:17.141Z,16.50
2019-05-21T22:55:21.986Z,21.77
2019-05-21T23:00:26.961Z,15.17
2019-05-21T23:05:31.816Z,20.97
2019-05-21T23:10:37.320Z,16.97
2019-05-21T23:15:42.152Z,14.60
2019-05-21T23:20:47.554Z,14.00
2019-05-21T23:25:54.360Z,12.70
2019-05-21T23:31:01.742Z,16.03
2019-05-21T23:36:07.150Z,14.50
2019-05-21T23:41:12.054Z,16.57
2019-05-21T23:46:16.886Z,14.60
2019-05-21T23:51:22.522Z,12.70
2019-05-21T23:56:27.352Z,17.87
